Time;durP1;ratioP1;P1;durP2;ratioP2;P2;SDS_P1;SDS_P2;PMS_P1;PMS_P2;Temp;Humidity;BMP_temperature;BMP_pressure;BME280_temperature;BME280_humidity;BME280_pressure;Samples;Min_cycle;Max_cycle;Signal;HPM_P1;HPM_P2
2022/06/13 08:08:07;;;;;;;5.57;2.10;;;20.10;85.70;;;;;;5153423;23;20045;-77
2022/06/13 08:10:33;;;;;;;5.32;2.20;;;20.20;85.60;;;;;;4889834;29;20247;-78
2022/06/13 08:12:59;;;;;;;7.32;2.20;;;20.30;84.50;;;;;;4890354;29;20033;-79
2022/06/13 08:15:25;;;;;;;5.80;1.85;;;20.30;84.30;;;;;;4902059;29;20046;-78
2022/06/13 08:17:51;;;;;;;8.70;1.88;;;20.30;84.70;;;;;;4926874;29;20055;-77
2022/06/13 08:20:17;;;;;;;8.10;2.17;;;20.40;85.60;;;;;;4926630;29;20312;-77
2022/06/13 08:22:47;;;;;;;9.02;2.03;;;20.70;85.10;;;;;;4926439;29;20036;-78
2022/06/13 08:25:22;;;;;;;5.40;2.00;;;21.00;83.00;;;;;;4907077;29;20041;-78
2022/06/13 08:27:48;;;;;;;6.50;1.95;;;21.00;83.50;;;;;;4909243;29;20112;-77
2022/06/13 08:30:15;;;;;;;6.35;1.80;;;21.20;82.80;;;;;;4908062;29;20188;-77
2022/06/13 08:32:42;;;;;;;7.05;2.03;;;21.10;82.40;;;;;;4908240;29;20040;-78
2022/06/13 08:35:08;;;;;;;5.53;1.60;;;21.10;82.50;;;;;;4907950;29;20084;-77
2022/06/13 08:37:33;;;;;;;5.45;1.85;;;21.20;83.00;;;;;;4908927;29;20028;-78
2022/06/13 08:39:59;;;;;;;5.10;1.75;;;21.20;82.40;;;;;;4894197;29;20191;-78
2022/06/13 08:42:30;;;;;;;8.15;2.10;;;21.20;81.30;;;;;;4927132;29;20047;-78
2022/06/13 08:45:03;;;;;;;6.90;2.00;;;21.00;81.40;;;;;;4929096;29;20036;-78
2022/06/13 08:47:44;;;;;;;6.32;1.75;;;21.00;81.90;;;;;;4926956;29;20040;-77
2022/06/13 08:50:33;;;;;;;7.47;1.98;;;21.00;81.30;;;;;;4925416;29;20076;-77
2022/06/13 08:53:14;;;;;;;7.25;1.90;;;20.90;81.40;;;;;;4927775;29;20052;-78
2022/06/13 08:55:47;;;;;;;6.70;1.60;;;20.80;82.00;;;;;;4926312;29;20036;-78
2022/06/13 08:58:25;;;;;;;7.30;2.20;;;20.80;82.40;;;;;;4926773;29;20031;-77
2022/06/13 09:00:56;;;;;;;6.38;2.05;;;21.00;80.60;;;;;;4925430;29;20048;-80
2022/06/13 09:03:57;;;;;;;7.43;2.28;;;20.90;80.50;;;;;;4925064;29;20309;-78
2022/06/13 09:06:38;;;;;;;8.07;1.85;;;20.80;81.20;;;;;;4918913;29;20291;-79
2022/06/13 09:09:12;;;;;;;6.55;2.10;;;21.00;81.60;;;;;;4922585;29;20088;-79
2022/06/13 09:11:50;;;;;;;8.15;1.98;;;21.10;80.70;;;;;;4907732;29;20040;-78
2022/06/13 09:14:31;;;;;;;8.32;2.10;;;21.20;80.10;;;;;;4905892;29;20040;-77
2022/06/13 09:17:01;;;;;;;7.53;1.92;;;21.30;77.60;;;;;;4907383;29;20040;-78
2022/06/13 09:19:40;;;;;;;8.98;1.90;;;21.30;79.00;;;;;;4905963;29;20464;-77
2022/06/13 09:22:19;;;;;;;;;;;21.60;78.00;;;;;;4908328;29;20040;-78
2022/06/13 09:25:11;;;;;;;7.57;2.10;;;21.70;77.00;;;;;;4906823;29;20093;-77
2022/06/13 09:27:43;;;;;;;6.00;2.03;;;21.90;76.60;;;;;;4906979;29;20310;-78
2022/06/13 09:30:23;;;;;;;6.60;2.25;;;21.90;76.00;;;;;;4905135;29;20345;-77
2022/06/13 09:32:54;;;;;;;10.68;2.10;;;22.20;76.40;;;;;;4907569;29;20024;-79
2022/06/13 09:35:45;;;;;;;8.18;2.42;;;22.20;75.80;;;;;;4907183;29;20048;-78
2022/06/13 09:38:35;;;;;;;7.70;1.98;;;21.90;76.60;;;;;;4904143;29;20048;-79
2022/06/13 09:41:11;;;;;;;6.45;1.75;;;21.70;76.40;;;;;;4906648;29;20171;-79
2022/06/13 09:44:13;;;;;;;6.57;1.92;;;21.80;75.20;;;;;;4925723;29;20083;-79
2022/06/13 09:47:17;;;;;;;5.43;1.52;;;21.80;73.60;;;;;;4926067;29;20044;-79
2022/06/13 09:50:22;;;;;;;6.13;1.60;;;22.10;72.90;;;;;;4926504;29;20080;-79
2022/06/13 09:52:56;;;;;;;5.72;1.73;;;22.40;72.90;;;;;;4926899;29;20043;-79
2022/06/13 09:55:31;;;;;;;7.28;1.48;;;22.40;72.40;;;;;;4925303;29;20035;-79
2022/06/13 09:58:10;;;;;;;5.63;1.50;;;22.30;72.40;;;;;;4925107;29;20043;-78
2022/06/13 10:00:56;;;;;;;5.90;1.33;;;22.40;71.70;;;;;;4926173;29;20051;-78
2022/06/13 10:03:30;;;;;;;4.43;1.75;;;22.30;66.50;;;;;;4928804;29;20043;-77
2022/06/13 10:06:19;;;;;;;4.72;1.60;;;22.10;67.20;;;;;;4914053;29;20028;-78
2022/06/13 10:08:48;;;;;;;5.15;1.33;;;22.10;70.60;;;;;;4910044;29;20039;-78
2022/06/13 10:11:33;;;;;;;6.53;2.08;;;22.30;70.10;;;;;;4912017;29;20356;-77
2022/06/13 10:14:37;;;;;;;5.90;1.75;;;22.10;70.40;;;;;;4928887;29;20151;-78
2022/06/13 10:17:33;;;;;;;6.50;1.80;;;22.20;70.70;;;;;;4927927;29;20333;-79
2022/06/13 10:20:22;;;;;;;6.35;1.88;;;22.40;70.30;;;;;;4928810;29;20229;-77
2022/06/13 10:23:05;;;;;;;5.53;1.42;;;22.40;68.00;;;;;;4928425;29;20111;-79
2022/06/13 10:26:08;;;;;;;4.13;1.60;;;22.40;69.10;;;;;;4928788;29;20356;-78
2022/06/13 10:28:53;;;;;;;7.90;1.70;;;22.60;68.10;;;;;;4928308;29;20273;-77
2022/06/13 10:31:46;;;;;;;6.95;1.60;;;22.70;67.00;;;;;;4927915;29;20112;-77
2022/06/13 10:34:27;;;;;;;4.60;1.30;;;22.50;68.30;;;;;;4912825;29;20047;-78
2022/06/13 10:37:17;;;;;;;7.13;1.88;;;22.70;68.70;;;;;;4931769;29;20048;-77
2022/06/13 10:39:44;;;;;;;4.82;1.70;;;22.90;68.00;;;;;;4929131;29;20103;-78
2022/06/13 10:42:16;;;;;;;6.57;1.70;;;23.00;68.00;;;;;;4905318;29;20056;-78
2022/06/13 10:44:42;;;;;;;6.03;1.27;;;23.30;67.90;;;;;;4911092;29;20359;-78
2022/06/13 10:47:22;;;;;;;6.88;1.98;;;23.40;67.50;;;;;;4909522;29;20045;-77
2022/06/13 10:50:28;;;;;;;5.70;1.88;;;23.40;68.10;;;;;;4909758;29;20096;-78
2022/06/13 10:53:00;;;;;;;4.32;1.40;;;23.30;67.20;;;;;;4909821;29;20164;-77
2022/06/13 10:55:33;;;;;;;5.95;1.40;;;23.10;67.10;;;;;;4910100;29;20044;-78
2022/06/13 10:58:20;;;;;;;6.13;1.63;;;23.20;67.50;;;;;;4910207;29;20168;-78
2022/06/13 11:01:11;;;;;;;6.85;1.50;;;23.20;66.50;;;;;;4910530;29;20059;-77
2022/06/13 11:03:42;;;;;;;7.00;1.48;;;23.40;66.70;;;;;;4911413;29;20196;-79
2022/06/13 11:06:19;;;;;;;5.05;1.38;;;23.50;65.30;;;;;;4911563;29;20039;-79
2022/06/13 11:08:45;;;;;;;5.47;1.48;;;23.60;66.00;;;;;;4919010;29;20100;-78
2022/06/13 11:11:17;;;;;;;5.03;1.75;;;23.70;65.20;;;;;;4927218;29;20036;-78
2022/06/13 11:13:53;;;;;;;6.07;1.52;;;23.70;66.00;;;;;;4932110;29;20046;-80
2022/06/13 11:22:42;;;;;;;4.90;1.40;;;24.20;63.10;;;;;;4927617;29;20044;-77
2022/06/13 11:25:11;;;;;;;4.85;1.20;;;24.50;63.10;;;;;;4927469;29;20107;-78
2022/06/13 11:27:40;;;;;;;6.60;1.52;;;25.00;62.20;;;;;;4927230;29;20036;-77
2022/06/13 11:30:33;;;;;;;3.00;1.40;;;25.40;62.00;;;;;;4926949;29;20253;-78
2022/06/13 11:33:09;;;;;;;4.13;1.30;;;26.00;61.40;;;;;;4928043;29;20032;-78
2022/06/13 11:35:39;;;;;;;5.50;1.67;;;26.50;59.90;;;;;;4927391;29;20055;-78
2022/06/13 11:38:25;;;;;;;5.05;1.73;;;26.60;59.60;;;;;;4926282;29;20052;-77
2022/06/13 11:41:19;;;;;;;8.10;2.03;;;26.90;59.60;;;;;;4927991;29;20047;-77
2022/06/13 11:44:00;;;;;;;4.38;1.75;;;27.00;59.10;;;;;;4910818;29;20048;-78
2022/06/13 11:46:31;;;;;;;5.88;1.30;;;26.90;58.80;;;;;;4903285;29;20043;-78
2022/06/13 11:49:05;;;;;;;4.82;1.30;;;26.60;58.90;;;;;;4927203;29;20051;-79
2022/06/13 11:51:49;;;;;;;5.10;1.30;;;26.30;59.50;;;;;;4911819;29;20028;-78
2022/06/13 11:54:27;;;;;;;5.10;1.42;;;27.00;58.80;;;;;;4928236;29;20032;-77
2022/06/13 11:57:36;;;;;;;4.43;1.27;;;27.90;57.10;;;;;;4939036;29;20028;-77
2022/06/13 12:00:24;;;;;;;4.55;1.10;;;28.00;57.20;;;;;;4920526;29;20036;-80
2022/06/13 12:02:49;;;;;;;4.18;1.27;;;29.40;55.70;;;;;;4939660;29;20060;-78
2022/06/13 12:05:22;;;;;;;4.65;1.40;;;30.40;54.40;;;;;;4921949;29;20058;-77
2022/06/13 12:07:58;;;;;;;4.68;1.30;;;31.40;54.20;;;;;;4912188;29;20321;-78
2022/06/13 12:10:32;;;;;;;3.72;1.20;;;31.90;51.00;;;;;;4926324;29;20046;-77
2022/06/13 12:12:57;;;;;;;2.83;0.90;;;31.10;50.80;;;;;;4911313;29;20028;-79
2022/06/13 12:15:35;;;;;;;5.13;1.30;;;29.80;52.20;;;;;;4925854;29;20044;-79
2022/06/13 12:18:16;;;;;;;2.95;1.00;;;28.50;54.00;;;;;;4926749;29;20047;-76
2022/06/13 12:20:48;;;;;;;3.55;1.10;;;27.90;54.90;;;;;;4926604;29;20199;-78
2022/06/13 12:23:22;;;;;;;5.85;1.30;;;29.10;54.40;;;;;;4925902;29;20318;-78
2022/06/13 12:25:56;;;;;;;3.85;1.20;;;30.70;52.00;;;;;;4926894;29;20048;-78
2022/06/13 12:28:29;;;;;;;3.10;0.93;;;31.30;50.10;;;;;;4926871;29;20027;-80
2022/06/13 12:31:05;;;;;;;2.50;1.02;;;30.40;50.80;;;;;;4926076;29;20222;-78
2022/06/13 12:33:43;;;;;;;4.13;1.10;;;30.50;51.00;;;;;;4927032;29;20337;-78
2022/06/13 12:36:11;;;;;;;3.05;1.20;;;31.50;50.10;;;;;;4927067;29;20036;-78
2022/06/13 12:39:19;;;;;;;2.70;0.80;;;32.40;48.90;;;;;;4926272;29;20031;-79
2022/06/13 12:42:18;;;;;;;1.88;0.73;;;32.20;49.40;;;;;;4926842;29;20044;-79
2022/06/13 12:45:08;;;;;;;4.75;0.90;;;30.80;50.10;;;;;;4926707;29;20187;-79
2022/06/13 12:47:53;;;;;;;3.53;1.00;;;30.70;50.20;;;;;;4929777;29;20044;-78
2022/06/13 12:50:25;;;;;;;3.03;0.88;;;30.40;49.70;;;;;;4929564;29;20039;-77
2022/06/13 12:53:04;;;;;;;3.38;1.13;;;30.30;50.70;;;;;;4931083;29;20032;-78
2022/06/13 12:55:58;;;;;;;2.92;0.70;;;31.90;48.90;;;;;;4932457;29;20060;-78
2022/06/13 12:58:33;;;;;;;4.07;0.98;;;33.00;47.10;;;;;;4925681;29;20038;-78
2022/06/13 13:01:17;;;;;;;2.97;0.93;;;32.00;47.80;;;;;;4927469;29;20085;-77
2022/06/13 13:04:25;;;;;;;3.17;1.20;;;32.30;47.50;;;;;;4937694;29;20095;-78
2022/06/13 13:07:05;;;;;;;2.60;0.75;;;32.00;46.70;;;;;;4922653;29;20063;-78
2022/06/13 13:09:53;;;;;;;3.67;0.80;;;31.90;48.50;;;;;;4938123;29;20032;-76
2022/06/13 13:12:22;;;;;;;;;;;33.90;46.80;;;;;;4924044;29;20036;-78
2022/06/13 13:14:47;;;;;;;4.88;1.02;;;34.90;45.50;;;;;;4921664;29;19913;-77
2022/06/13 13:17:34;;;;;;;3.30;1.20;;;34.30;45.40;;;;;;4937901;29;20060;-77
2022/06/13 13:20:11;;;;;;;3.97;0.93;;;33.10;46.70;;;;;;4928798;29;20031;-78
2022/06/13 13:23:13;;;;;;;3.22;0.90;;;32.00;47.20;;;;;;4933272;29;20053;-77
2022/06/13 13:25:46;;;;;;;5.20;1.52;;;30.50;48.80;;;;;;4931980;29;20036;-76
2022/06/13 13:28:38;;;;;;;5.22;0.90;;;29.30;49.90;;;;;;4928042;29;20111;-76
2022/06/13 13:31:17;;;;;;;4.68;1.00;;;30.40;49.20;;;;;;4927504;29;20039;-77
2022/06/13 13:33:52;;;;;;;4.60;1.10;;;31.90;47.70;;;;;;4927197;29;20176;-77
2022/06/13 13:36:28;;;;;;;3.20;1.20;;;32.90;47.70;;;;;;4927877;29;20036;-78
2022/06/13 13:39:00;;;;;;;4.47;1.00;;;32.30;48.20;;;;;;4928035;29;20032;-77
2022/06/13 13:41:39;;;;;;;2.38;0.80;;;32.20;47.80;;;;;;4926265;29;20104;-77
2022/06/13 13:44:16;;;;;;;2.83;0.75;;;33.60;46.40;;;;;;4924740;29;20070;-77
2022/06/13 13:47:01;;;;;;;5.70;1.70;;;32.80;46.90;;;;;;4925143;29;20040;-77
2022/06/13 13:49:39;;;;;;;5.40;0.95;;;31.50;47.70;;;;;;4925461;29;20043;-76
2022/06/13 13:52:17;;;;;;;4.07;1.10;;;29.90;49.50;;;;;;4924899;29;20043;-77
2022/06/13 13:54:51;;;;;;;4.78;0.95;;;29.50;50.00;;;;;;4925836;29;20036;-78
2022/06/13 13:57:25;;;;;;;3.80;0.98;;;29.20;50.70;;;;;;4924907;29;20165;-78
2022/06/13 13:59:58;;;;;;;3.30;1.00;;;28.60;50.80;;;;;;4925982;29;20088;-77
2022/06/13 14:03:03;;;;;;;2.50;0.90;;;28.10;51.20;;;;;;4925160;29;20096;-77
2022/06/13 14:05:52;;;;;;;3.08;1.08;;;30.10;50.60;;;;;;4924641;29;20044;-78
2022/06/13 14:08:25;;;;;;;3.58;0.80;;;34.00;46.40;;;;;;4925754;29;20040;-77
2022/06/13 14:10:57;;;;;;;4.28;0.80;;;34.00;45.40;;;;;;4925657;29;20112;-77
2022/06/13 14:13:29;;;;;;;2.90;0.88;;;33.90;45.70;;;;;;4925700;29;20357;-76
2022/06/13 14:15:55;;;;;;;3.15;0.70;;;32.60;47.00;;;;;;4924851;29;20294;-76
2022/06/13 14:18:33;;;;;;;2.75;0.80;;;31.20;48.00;;;;;;4925289;29;20094;-79
2022/06/13 14:21:13;;;;;;;3.88;1.30;;;30.60;49.60;;;;;;4925278;29;20032;-77
2022/06/13 14:23:50;;;;;;;3.88;0.93;;;31.50;48.40;;;;;;4923958;29;20056;-77
2022/06/13 14:26:44;;;;;;;5.25;1.05;;;32.30;47.90;;;;;;4925481;29;20044;-77
2022/06/13 14:29:28;;;;;;;4.70;1.05;;;32.20;47.90;;;;;;4925213;29;20300;-78
2022/06/13 14:32:26;;;;;;;2.40;0.77;;;31.80;47.80;;;;;;4924498;29;20122;-77
2022/06/13 14:37:48;;;;;;;3.17;0.90;;;30.90;48.10;;;;;;4924965;29;20148;-77
2022/06/13 14:40:18;;;;;;;3.65;0.98;;;31.30;47.70;;;;;;4925482;29;20047;-77
2022/06/13 14:42:59;;;;;;;3.47;1.10;;;30.90;47.40;;;;;;4923775;29;20059;-76
2022/06/13 14:46:00;;;;;;;4.97;1.20;;;30.10;49.20;;;;;;4908198;29;20047;-78
2022/06/13 14:48:55;;;;;;;4.45;1.30;;;29.70;49.70;;;;;;4926502;29;20390;-78
2022/06/13 14:51:51;;;;;;;5.53;1.10;;;29.20;49.60;;;;;;4928791;29;20059;-78
2022/06/13 14:55:02;;;;;;;5.88;1.80;;;29.60;50.30;;;;;;4928667;29;20055;-78
2022/06/13 14:57:27;;;;;;;2.20;0.73;;;33.10;47.80;;;;;;4926491;29;20306;-79
2022/06/13 15:00:13;;;;;;;4.25;0.68;;;33.20;46.10;;;;;;4927258;29;20024;-79
2022/06/13 15:02:54;;;;;;;1.70;0.60;;;34.40;45.60;;;;;;4904121;29;20060;-79
2022/06/13 15:05:29;;;;;;;2.85;0.82;;;35.90;44.60;;;;;;4928028;29;20079;-76
2022/06/13 15:08:38;;;;;;;2.45;0.80;;;38.90;42.80;;;;;;4926991;29;20055;-77
2022/06/13 15:11:14;;;;;;;2.40;0.70;;;38.20;41.70;;;;;;4928461;29;20119;-77
2022/06/13 15:13:42;;;;;;;3.08;0.80;;;36.90;42.30;;;;;;4927346;29;20142;-76
2022/06/13 15:16:10;;;;;;;3.10;0.90;;;34.90;43.80;;;;;;4927970;29;20111;-77
2022/06/13 15:18:37;;;;;;;;;;;33.20;45.50;;;;;;4928345;29;20064;-76
2022/06/13 15:21:11;;;;;;;4.10;1.10;;;32.60;46.10;;;;;;4928269;29;19911;-79
2022/06/13 15:23:40;;;;;;;2.17;0.77;;;34.90;45.50;;;;;;4927460;29;20044;-77
2022/06/13 15:26:06;;;;;;;6.88;1.67;;;35.80;44.00;;;;;;4927675;29;20036;-77
2022/06/13 15:29:05;;;;;;;2.55;0.80;;;37.10;42.90;;;;;;4927159;29;20147;-78
2022/06/13 15:31:33;;;;;;;3.30;0.88;;;38.50;41.80;;;;;;4926199;29;20044;-77
2022/06/13 15:34:08;;;;;;;1.90;0.90;;;36.30;42.80;;;;;;4927351;29;20063;-78
2022/06/13 15:36:34;;;;;;;3.08;1.40;;;34.20;43.90;;;;;;4927358;29;20064;-77
2022/06/13 15:39:00;;;;;;;2.35;0.90;;;34.50;45.20;;;;;;4928128;29;20044;-78
2022/06/13 15:41:32;;;;;;;2.15;0.70;;;36.80;42.90;;;;;;4928214;29;20044;-77
2022/06/13 15:43:59;;;;;;;3.30;1.00;;;37.60;41.70;;;;;;4927889;29;20337;-78
2022/06/13 15:46:29;;;;;;;2.45;0.70;;;37.10;42.40;;;;;;4928199;29;20232;-78
2022/06/13 15:48:56;;;;;;;3.25;1.00;;;37.90;41.90;;;;;;4928245;29;20043;-78
2022/06/13 15:51:24;;;;;;;;;;;39.30;41.30;;;;;;4928268;29;20043;-77
2022/06/13 15:53:50;;;;;;;;;;;40.60;40.50;;;;;;4927851;29;19916;-77
2022/06/13 15:56:30;;;;;;;2.65;0.90;;;41.80;39.70;;;;;;4927779;29;19918;-78
2022/06/13 15:59:02;;;;;;;3.42;0.90;;;42.60;39.00;;;;;;4926350;29;20032;-77
2022/06/13 16:01:33;;;;;;;2.47;0.68;;;42.50;38.80;;;;;;4927345;29;20040;-77
2022/06/13 16:04:03;;;;;;;3.25;0.93;;;43.00;38.60;;;;;;4926719;29;20027;-77
2022/06/13 16:06:46;;;;;;;1.58;0.65;;;43.10;38.20;;;;;;4926112;29;20247;-76
2022/06/13 16:09:33;;;;;;;2.17;0.70;;;42.90;37.80;;;;;;4927598;29;20036;-77
2022/06/13 16:12:05;;;;;;;;;;;43.50;38.90;;;;;;4928272;29;20028;-77
2022/06/13 16:14:33;;;;;;;3.20;0.98;;;43.70;38.00;;;;;;4926298;29;20117;-76
2022/06/13 16:17:05;;;;;;;3.08;1.00;;;43.50;37.40;;;;;;4927166;29;20083;-77
2022/06/13 16:19:33;;;;;;;2.47;0.80;;;42.80;37.40;;;;;;4927453;29;20050;-76
2022/06/13 16:22:04;;;;;;;3.30;0.93;;;41.80;38.10;;;;;;4927593;29;20070;-77
2022/06/13 16:24:33;;;;;;;2.72;1.00;;;41.70;37.90;;;;;;4927319;29;20159;-77
2022/06/13 16:27:00;;;;;;;2.08;0.70;;;42.00;38.10;;;;;;4926025;29;20055;-77
2022/06/13 16:29:26;;;;;;;3.00;0.93;;;42.80;38.00;;;;;;4927426;29;20031;-77
2022/06/13 16:31:52;;;;;;;3.20;0.90;;;43.20;37.10;;;;;;4925898;29;20047;-77
2022/06/13 16:34:21;;;;;;;1.80;0.63;;;43.30;38.10;;;;;;4926996;29;20028;-77
2022/06/13 16:36:50;;;;;;;2.85;0.88;;;42.60;37.10;;;;;;4926543;29;20020;-78
2022/06/13 16:39:19;;;;;;;2.38;1.00;;;42.50;36.90;;;;;;4927416;29;20210;-78
2022/06/13 16:42:02;;;;;;;4.82;0.90;;;41.00;37.90;;;;;;4925499;29;20031;-77
2022/06/13 16:44:45;;;;;;;3.22;0.90;;;40.70;38.30;;;;;;4927264;29;20091;-77
2022/06/13 16:47:14;;;;;;;4.13;1.05;;;40.00;38.50;;;;;;4926903;29;20043;-78
2022/06/13 16:49:41;;;;;;;4.38;1.02;;;38.90;38.70;;;;;;4928464;29;20035;-77
2022/06/13 16:52:20;;;;;;;3.50;1.02;;;38.70;38.90;;;;;;4932494;29;20107;-78
2022/06/13 16:54:52;;;;;;;3.97;1.00;;;38.60;39.70;;;;;;4937113;29;20326;-76
2022/06/13 16:57:26;;;;;;;3.85;1.20;;;38.40;39.40;;;;;;4935986;29;20040;-76
2022/06/13 17:00:06;;;;;;;3.80;1.05;;;38.70;39.40;;;;;;4927373;29;20052;-77
2022/06/13 17:02:36;;;;;;;3.47;1.35;;;38.60;39.00;;;;;;4927253;29;20066;-77
2022/06/13 17:05:21;;;;;;;2.65;0.93;;;38.00;39.50;;;;;;4926957;29;20040;-78
2022/06/13 17:08:07;;;;;;;2.58;1.10;;;37.30;39.80;;;;;;4925754;29;20051;-77
2022/06/13 17:10:51;;;;;;;3.83;1.20;;;36.50;41.20;;;;;;4925905;29;20036;-77
2022/06/13 17:13:21;;;;;;;4.20;1.00;;;36.80;40.60;;;;;;4926233;29;20099;-77
2022/06/13 17:15:50;;;;;;;4.32;1.30;;;36.10;40.60;;;;;;4925498;29;20042;-78
2022/06/13 17:18:19;;;;;;;3.83;1.13;;;34.90;41.50;;;;;;4926393;29;20032;-77
2022/06/13 17:20:49;;;;;;;3.92;0.93;;;35.00;42.10;;;;;;4925633;29;20054;-77
2022/06/13 17:23:17;;;;;;;2.83;1.02;;;35.90;41.40;;;;;;4925321;29;20040;-76
2022/06/13 17:33:59;;;;;;;4.60;0.93;;;37.80;40.30;;;;;;4924739;29;20040;-78
2022/06/13 17:36:25;;;;;;;3.42;1.00;;;37.90;40.40;;;;;;4926244;29;20044;-77
2022/06/13 17:38:51;;;;;;;2.83;1.00;;;38.80;40.00;;;;;;4924840;29;20055;-77
2022/06/13 17:41:17;;;;;;;4.95;1.20;;;38.70;39.10;;;;;;4927544;29;20040;-77
2022/06/13 17:43:43;;;;;;;2.65;1.20;;;38.40;39.40;;;;;;4926709;29;20043;-77
2022/06/13 17:46:12;;;;;;;4.53;1.05;;;37.80;39.60;;;;;;4925560;29;20107;-79
2022/06/13 17:48:39;;;;;;;4.32;1.10;;;37.70;39.70;;;;;;4925215;29;20259;-77
2022/06/13 17:51:06;;;;;;;2.38;1.05;;;37.80;39.80;;;;;;4926105;29;20036;-78
2022/06/13 17:53:33;;;;;;;3.00;1.05;;;37.80;39.80;;;;;;4925869;29;20099;-77
2022/06/13 17:56:00;;;;;;;5.32;1.27;;;37.60;39.90;;;;;;4926504;29;20092;-77
2022/06/13 17:58:26;;;;;;;2.92;1.17;;;36.70;40.20;;;;;;4925780;29;20024;-77
2022/06/13 18:00:53;;;;;;;2.05;1.20;;;37.00;40.50;;;;;;4924659;29;20039;-77
2022/06/13 18:03:23;;;;;;;3.50;1.50;;;36.70;40.30;;;;;;4926196;29;20056;-77
2022/06/13 18:05:49;;;;;;;4.30;1.25;;;36.20;41.10;;;;;;4924988;29;20235;-77
2022/06/13 18:08:25;;;;;;;3.78;1.23;;;36.00;41.20;;;;;;4925278;29;20067;-78
2022/06/13 18:10:52;;;;;;;2.75;1.10;;;35.70;40.90;;;;;;4925600;29;20048;-76
2022/06/13 18:13:18;;;;;;;2.85;1.10;;;34.70;41.20;;;;;;4925632;29;20040;-77
2022/06/13 18:15:46;;;;;;;4.25;1.30;;;34.00;41.70;;;;;;4924712;29;20043;-77
2022/06/13 18:18:13;;;;;;;;;;;33.70;41.80;;;;;;4926361;29;20036;-77
2022/06/13 18:20:43;;;;;;;3.37;1.00;;;33.10;42.40;;;;;;4925797;29;19913;-76
2022/06/13 18:23:09;;;;;;;5.07;1.33;;;32.30;43.00;;;;;;4928210;29;20066;-76
2022/06/13 18:25:41;;;;;;;4.05;1.25;;;31.70;43.90;;;;;;4928349;29;20036;-78
2022/06/13 18:28:07;;;;;;;5.13;1.92;;;31.30;44.00;;;;;;4929386;29;20032;-77
2022/06/13 18:30:34;;;;;;;3.88;1.63;;;30.90;45.00;;;;;;4928821;29;20049;-79
2022/06/13 18:33:02;;;;;;;4.20;1.65;;;30.70;44.80;;;;;;4927672;29;20048;-78
2022/06/13 18:35:30;;;;;;;5.05;1.27;;;29.70;46.30;;;;;;4929094;29;20039;-78
2022/06/13 18:37:57;;;;;;;5.05;1.40;;;28.70;47.10;;;;;;4928823;29;20020;-78
2022/06/13 18:40:24;;;;;;;3.78;1.30;;;27.80;48.20;;;;;;4929550;29;20036;-77
2022/06/13 18:42:52;;;;;;;3.78;1.30;;;27.30;49.20;;;;;;4928557;29;20218;-78
2022/06/13 18:45:20;;;;;;;6.70;1.55;;;26.80;50.40;;;;;;4928898;29;20211;-77
2022/06/13 18:47:47;;;;;;;5.90;1.20;;;26.40;50.30;;;;;;4928532;29;20321;-77
2022/06/13 18:50:16;;;;;;;3.78;1.48;;;26.10;51.00;;;;;;4928842;29;20067;-77
2022/06/13 18:52:42;;;;;;;5.43;1.40;;;25.70;51.10;;;;;;4928253;29;20095;-78
2022/06/13 18:55:07;;;;;;;2.95;1.30;;;25.40;52.20;;;;;;4928176;29;20032;-77
2022/06/13 18:57:33;;;;;;;5.72;1.55;;;25.10;52.60;;;;;;4929256;29;20047;-76
2022/06/13 18:59:59;;;;;;;4.93;1.83;;;24.80;53.10;;;;;;4928421;29;20036;-76
2022/06/13 19:02:30;;;;;;;5.18;1.65;;;24.60;53.20;;;;;;4927258;29;20062;-77
2022/06/13 19:04:56;;;;;;;3.30;1.50;;;24.30;53.20;;;;;;4928371;29;20046;-77
2022/06/13 19:07:24;;;;;;;4.70;1.75;;;23.90;53.90;;;;;;4928317;29;20120;-77
2022/06/13 19:09:53;;;;;;;5.00;1.75;;;23.70;54.80;;;;;;4927844;29;20035;-76
2022/06/13 19:12:22;;;;;;;4.85;1.50;;;23.50;55.30;;;;;;4928690;29;20278;-77
2022/06/13 19:14:55;;;;;;;4.53;1.60;;;23.30;55.70;;;;;;4927864;29;20277;-77
2022/06/13 19:17:24;;;;;;;5.50;2.30;;;23.00;56.40;;;;;;4927771;29;20090;-77
2022/06/13 19:19:50;;;;;;;5.70;2.08;;;22.80;57.00;;;;;;4926668;29;20372;-77
2022/06/13 19:22:16;;;;;;;5.57;2.30;;;22.60;57.30;;;;;;4928628;29;20047;-77
2022/06/13 19:24:45;;;;;;;6.18;2.35;;;22.50;58.00;;;;;;4927614;29;20079;-77
2022/06/13 19:27:11;;;;;;;4.50;2.05;;;22.40;58.20;;;;;;4928565;29;20028;-78
2022/06/13 19:29:41;;;;;;;4.55;1.85;;;22.30;58.90;;;;;;4928158;29;20091;-77
2022/06/13 19:32:12;;;;;;;4.85;1.88;;;22.10;59.00;;;;;;4926428;29;20052;-77
2022/06/13 19:34:43;;;;;;;5.95;1.65;;;21.90;59.50;;;;;;4927325;29;20063;-78
2022/06/13 19:37:10;;;;;;;4.78;1.80;;;21.80;60.20;;;;;;4926641;29;20032;-76
2022/06/13 19:39:39;;;;;;;7.40;1.90;;;21.60;60.70;;;;;;4927938;29;20032;-79
2022/06/13 19:42:09;;;;;;;4.13;1.77;;;21.40;61.50;;;;;;4927420;29;20044;-78
2022/06/13 19:44:37;;;;;;;5.93;1.90;;;21.30;61.70;;;;;;4911488;29;20024;-78
2022/06/13 19:47:04;;;;;;;4.93;1.77;;;21.20;62.00;;;;;;4909917;29;20040;-78
2022/06/13 19:49:30;;;;;;;4.72;1.65;;;21.20;62.20;;;;;;4927202;29;20043;-78
2022/06/13 19:51:56;;;;;;;5.10;1.80;;;21.20;62.40;;;;;;4926519;29;20036;-78
2022/06/13 19:54:23;;;;;;;4.53;1.95;;;21.10;62.60;;;;;;4926908;29;20028;-78
2022/06/13 19:56:51;;;;;;;4.20;1.50;;;21.00;62.90;;;;;;4926524;29;20112;-78
2022/06/13 19:59:18;;;;;;;3.60;1.48;;;21.00;63.40;;;;;;4926886;29;20039;-79
2022/06/13 20:01:45;;;;;;;9.20;2.53;;;21.00;63.30;;;;;;4927526;29;20040;-78
2022/06/13 20:04:12;;;;;;;5.05;1.90;;;20.90;63.70;;;;;;4926784;29;20051;-78
2022/06/13 20:09:25;;;;;;;4.63;1.90;;;20.80;64.00;;;;;;4927845;29;20322;-79
2022/06/13 20:11:57;;;;;;;6.22;1.92;;;20.70;64.20;;;;;;4910559;29;20112;-77
2022/06/13 20:14:23;;;;;;;6.57;1.90;;;20.70;64.40;;;;;;4927637;29;20074;-78
2022/06/13 20:16:53;;;;;;;4.32;1.73;;;20.60;64.80;;;;;;4926611;29;20056;-76
2022/06/13 20:19:22;;;;;;;5.70;2.20;;;20.50;65.10;;;;;;4927719;29;20232;-78
2022/06/13 20:21:48;;;;;;;4.70;1.85;;;20.50;65.40;;;;;;4926823;29;20028;-78
2022/06/13 20:24:15;;;;;;;5.10;2.00;;;20.40;65.40;;;;;;4926024;29;20032;-77
2022/06/13 20:26:43;;;;;;;4.70;1.80;;;20.40;65.60;;;;;;4927575;29;20032;-78
2022/06/13 20:29:10;;;;;;;7.40;2.22;;;20.30;66.10;;;;;;4926928;29;20028;-77
2022/06/13 20:31:40;;;;;;;6.53;2.70;;;20.20;66.60;;;;;;4925643;29;20043;-78
2022/06/13 20:34:11;;;;;;;5.15;2.40;;;20.20;67.20;;;;;;4910099;29;20036;-76
2022/06/13 20:36:42;;;;;;;8.40;2.97;;;20.10;67.40;;;;;;4910530;29;20036;-77
2022/06/13 20:39:32;;;;;;;4.78;2.45;;;20.00;67.90;;;;;;4926663;29;20032;-79
2022/06/13 20:42:01;;;;;;;5.78;2.53;;;19.90;68.10;;;;;;4925736;29;20250;-78
2022/06/13 20:44:32;;;;;;;8.35;2.90;;;19.70;68.60;;;;;;4910668;29;20096;-78
2022/06/13 20:47:04;;;;;;;6.07;2.33;;;19.70;69.10;;;;;;4924613;29;20103;-78
2022/06/13 20:49:47;;;;;;;7.18;2.88;;;19.60;69.40;;;;;;4926019;29;20083;-78
2022/06/13 20:52:16;;;;;;;3.97;2.00;;;19.50;69.90;;;;;;4909633;29;20141;-79
2022/06/13 20:54:42;;;;;;;7.43;2.28;;;19.30;70.20;;;;;;4909914;29;20034;-78
2022/06/13 20:57:11;;;;;;;7.90;2.67;;;19.30;70.30;;;;;;4926299;29;20024;-79
2022/06/13 20:59:37;;;;;;;5.97;2.30;;;19.30;70.20;;;;;;4926898;29;20028;-78
2022/06/13 21:02:29;;;;;;;4.10;2.08;;;19.30;70.60;;;;;;4925782;29;20369;-78
2022/06/13 21:04:58;;;;;;;5.70;2.20;;;19.30;70.50;;;;;;4925672;29;20043;-79
2022/06/13 21:07:26;;;;;;;5.32;2.03;;;19.20;70.60;;;;;;4926324;29;20076;-79
2022/06/13 21:10:12;;;;;;;7.43;2.70;;;19.20;71.20;;;;;;4925045;29;20028;-79
2022/06/13 21:12:42;;;;;;;6.10;2.47;;;19.20;71.30;;;;;;4909636;29;20050;-78
2022/06/13 21:15:12;;;;;;;5.78;2.60;;;19.20;71.40;;;;;;4924056;29;20040;-78
2022/06/13 21:17:38;;;;;;;7.85;2.67;;;19.10;71.80;;;;;;4925325;29;20317;-79
2022/06/13 21:20:05;;;;;;;6.05;2.72;;;19.10;71.70;;;;;;4924590;29;20036;-78
2022/06/13 21:22:33;;;;;;;5.57;2.78;;;19.00;72.20;;;;;;4925521;29;20087;-79
2022/06/13 21:25:00;;;;;;;5.22;2.30;;;19.00;72.30;;;;;;4925746;29;20122;-79
2022/06/13 21:27:27;;;;;;;7.22;3.33;;;18.90;72.20;;;;;;4926649;29;20032;-79
2022/06/13 21:29:53;;;;;;;8.57;2.78;;;18.90;73.20;;;;;;4926054;29;20032;-77
2022/06/13 21:32:19;;;;;;;6.85;3.00;;;18.80;73.40;;;;;;4925472;29;20334;-78
2022/06/13 21:34:45;;;;;;;6.30;2.85;;;18.70;74.10;;;;;;4926359;29;20028;-79
2022/06/13 21:37:11;;;;;;;6.53;2.72;;;18.70;73.80;;;;;;4925858;29;20115;-76
2022/06/13 21:39:38;;;;;;;8.95;3.47;;;18.60;74.10;;;;;;4926256;29;20036;-77
2022/06/13 21:42:05;;;;;;;5.72;2.95;;;18.50;74.90;;;;;;4925882;29;20061;-78
2022/06/13 21:44:31;;;;;;;6.38;3.17;;;18.40;75.60;;;;;;4925961;29;20051;-78
2022/06/13 21:47:01;;;;;;;8.10;2.60;;;18.30;75.30;;;;;;4925518;29;20039;-77
2022/06/13 21:49:27;;;;;;;6.68;2.58;;;18.20;76.00;;;;;;4925955;29;20058;-76
2022/06/13 21:51:54;;;;;;;7.75;2.92;;;18.10;76.90;;;;;;4925687;29;20136;-78
2022/06/13 21:54:20;;;;;;;8.48;2.85;;;18.00;77.40;;;;;;4926041;29;20270;-77